Time;durP1;ratioP1;P1;durP2;ratioP2;P2;SDS_P1;SDS_P2;PMS_P1;PMS_P2;Temp;Humidity;BMP_temperature;BMP_pressure;BME280_temperature;BME280_humidity;BME280_pressure;Samples;Min_cycle;Max_cycle;Signal;HPM_P1;HPM_P2
2022/09/15 00:00:53;;;;;;;8.97;3.80;;;15.40;99.90;;;;;;5114780;28;20879;-71
2022/09/15 00:03:23;;;;;;;8.90;3.93;;;15.40;99.90;;;;;;5114749;28;20463;-71
2022/09/15 00:05:52;;;;;;;6.93;4.10;;;15.40;99.90;;;;;;5114693;28;20456;-71
2022/09/15 00:08:18;;;;;;;10.17;4.07;;;15.30;99.90;;;;;;5114399;28;20935;-71
2022/09/15 00:10:50;;;;;;;5.90;3.70;;;15.40;99.90;;;;;;5114162;28;20484;-71
2022/09/15 00:13:18;;;;;;;6.63;3.90;;;15.30;99.90;;;;;;5114336;28;20456;-71
2022/09/15 00:15:45;;;;;;;8.63;3.70;;;15.30;99.90;;;;;;5114604;28;20782;-71
2022/09/15 00:18:12;;;;;;;12.90;4.93;;;15.30;99.90;;;;;;5114723;28;20490;-71
2022/09/15 00:20:42;;;;;;;10.00;4.33;;;15.30;99.90;;;;;;5114501;28;20452;-71
2022/09/15 00:23:10;;;;;;;9.50;4.73;;;15.20;99.90;;;;;;5114487;28;20451;-71
2022/09/15 00:25:41;;;;;;;6.90;4.43;;;15.30;99.90;;;;;;5114566;28;20463;-71
2022/09/15 00:28:08;;;;;;;12.37;5.40;;;15.30;99.90;;;;;;5114635;28;20437;-71
2022/09/15 00:30:39;;;;;;;10.73;5.40;;;15.30;99.90;;;;;;5114423;28;20463;-71
2022/09/15 00:33:06;;;;;;;9.30;5.37;;;15.30;99.90;;;;;;5116414;28;20535;-71
2022/09/15 00:35:37;;;;;;;9.87;4.57;;;15.30;99.90;;;;;;5118453;28;20452;-71
2022/09/15 00:38:05;;;;;;;11.93;4.77;;;15.30;99.90;;;;;;5118153;28;20495;-71
2022/09/15 00:40:32;;;;;;;8.60;4.20;;;15.30;99.90;;;;;;5119049;27;20539;-71
2022/09/15 00:42:59;;;;;;;13.60;7.03;;;15.20;99.90;;;;;;5118706;28;20463;-71
2022/09/15 00:45:26;;;;;;;6.07;4.27;;;15.20;99.90;;;;;;5117969;28;20467;-71
2022/09/15 00:47:53;;;;;;;8.13;4.13;;;15.20;99.90;;;;;;5118036;28;20988;-71
2022/09/15 00:50:21;;;;;;;12.20;4.63;;;15.10;99.90;;;;;;5117819;28;20467;-71
2022/09/15 00:52:52;;;;;;;9.70;4.30;;;15.10;99.90;;;;;;5117676;28;20467;-71
2022/09/15 00:55:27;;;;;;;13.07;3.87;;;15.00;99.90;;;;;;5117827;28;20459;-71
2022/09/15 00:57:58;;;;;;;6.80;4.00;;;15.00;99.90;;;;;;5117771;28;20441;-71
2022/09/15 01:00:27;;;;;;;8.30;3.83;;;15.00;99.90;;;;;;5117543;28;20452;-71
2022/09/15 01:02:55;;;;;;;6.97;4.57;;;14.90;99.90;;;;;;5117418;28;20464;-71
2022/09/15 01:05:24;;;;;;;10.97;5.20;;;14.90;99.90;;;;;;5117721;28;20923;-71
2022/09/15 01:07:55;;;;;;;10.90;4.43;;;14.90;99.90;;;;;;5117837;28;20517;-71
2022/09/15 01:10:26;;;;;;;7.50;4.70;;;14.80;99.90;;;;;;5117297;28;20477;-71
2022/09/15 01:12:57;;;;;;;8.83;4.30;;;14.80;99.90;;;;;;5117310;28;20441;-71
2022/09/15 01:15:30;;;;;;;11.47;5.00;;;14.80;99.90;;;;;;5117228;28;20457;-71
2022/09/15 01:18:10;;;;;;;8.70;4.40;;;14.70;99.90;;;;;;5117379;28;20445;-71
2022/09/15 01:20:55;;;;;;;8.43;4.90;;;14.70;99.90;;;;;;5116894;28;20524;-71
2022/09/15 01:23:57;;;;;;;10.57;4.90;;;14.70;99.90;;;;;;5117031;28;20519;-71
2022/09/15 01:26:53;;;;;;;11.50;5.50;;;14.70;99.90;;;;;;5054656;28;20451;-71
2022/09/15 01:29:45;;;;;;;12.83;5.70;;;14.70;99.90;;;;;;5054564;28;20432;-73
2022/09/15 01:35:12;;;;;;;8.50;4.90;;;14.60;99.90;;;;;;5054998;28;20430;-73
2022/09/15 01:37:45;;;;;;;11.63;5.33;;;14.60;99.90;;;;;;5054499;28;20451;-73
2022/09/15 01:40:14;;;;;;;8.10;5.63;;;14.60;99.90;;;;;;5054283;28;20558;-73
2022/09/15 01:42:43;;;;;;;7.77;5.17;;;14.50;99.90;;;;;;5054366;28;20451;-73
2022/09/15 01:45:17;;;;;;;7.87;5.10;;;14.60;99.90;;;;;;5054695;28;20451;-73
2022/09/15 01:47:47;;;;;;;13.47;5.60;;;14.50;99.90;;;;;;5056076;28;20439;-73
2022/09/15 01:50:20;;;;;;;8.10;5.33;;;14.50;99.90;;;;;;5055140;28;20451;-73
2022/09/15 01:52:49;;;;;;;13.37;5.93;;;14.50;99.90;;;;;;5054524;28;20443;-73
2022/09/15 01:55:21;;;;;;;8.40;6.27;;;14.50;99.90;;;;;;5054027;28;20455;-73
2022/09/15 01:57:49;;;;;;;8.10;6.00;;;14.60;99.90;;;;;;5054396;28;20771;-73
2022/09/15 02:00:17;;;;;;;7.23;5.40;;;14.60;99.90;;;;;;5053490;28;20487;-73
2022/09/15 02:02:48;;;;;;;10.50;4.87;;;14.60;99.90;;;;;;5069168;28;20467;-72
2022/09/15 02:05:20;;;;;;;7.83;5.20;;;14.50;99.90;;;;;;5116750;28;20899;-73
2022/09/15 02:07:53;;;;;;;9.77;4.40;;;14.50;99.90;;;;;;5116844;28;20441;-73
2022/09/15 02:10:26;;;;;;;10.20;4.30;;;14.50;99.90;;;;;;5116078;28;20976;-73
2022/09/15 02:12:59;;;;;;;9.33;4.50;;;14.50;99.90;;;;;;5116333;28;20519;-73
2022/09/15 02:15:32;;;;;;;8.93;4.43;;;14.40;99.90;;;;;;5116417;28;20766;-73
2022/09/15 02:18:02;;;;;;;13.70;5.03;;;14.40;99.90;;;;;;5116384;28;20494;-73
2022/09/15 02:20:39;;;;;;;10.90;3.70;;;14.40;99.90;;;;;;5116054;28;20491;-72
2022/09/15 02:23:09;;;;;;;5.20;3.90;;;14.30;99.90;;;;;;5116179;28;20448;-73
2022/09/15 02:25:40;;;;;;;5.60;4.30;;;14.30;99.90;;;;;;5116015;28;20463;-73
2022/09/15 02:28:10;;;;;;;7.70;4.03;;;14.30;99.90;;;;;;5116205;28;20492;-73
2022/09/15 02:30:42;;;;;;;8.67;4.43;;;14.30;99.90;;;;;;5116770;28;20436;-73
2022/09/15 02:33:12;;;;;;;7.77;4.30;;;14.30;99.90;;;;;;5116046;28;20539;-73
2022/09/15 02:35:41;;;;;;;6.80;4.30;;;14.20;99.90;;;;;;5115994;28;20536;-73
2022/09/15 02:38:10;;;;;;;8.53;3.93;;;14.20;99.90;;;;;;5115802;28;20528;-73
2022/09/15 02:40:41;;;;;;;9.07;4.80;;;14.20;99.90;;;;;;5116073;28;20838;-72
2022/09/15 02:43:11;;;;;;;9.20;3.90;;;14.10;99.90;;;;;;5116031;28;20532;-73
2022/09/15 02:45:40;;;;;;;5.40;4.00;;;14.10;99.90;;;;;;5115796;28;20455;-73
2022/09/15 02:48:08;;;;;;;8.47;4.10;;;14.10;99.90;;;;;;5115808;28;20796;-73
2022/09/15 02:50:35;;;;;;;5.47;3.60;;;14.00;99.90;;;;;;5115373;28;20969;-73
2022/09/15 02:53:03;;;;;;;14.93;4.90;;;14.00;99.90;;;;;;5115477;28;20452;-72
2022/09/15 02:55:30;;;;;;;7.33;4.77;;;14.00;99.90;;;;;;5115252;28;20457;-73
2022/09/15 02:57:58;;;;;;;10.30;4.13;;;13.90;99.90;;;;;;5115370;28;20448;-73
2022/09/15 03:00:25;;;;;;;9.23;4.50;;;13.90;99.90;;;;;;5115072;28;20552;-73
2022/09/15 03:02:54;;;;;;;12.93;4.47;;;13.90;99.90;;;;;;5115801;28;20509;-73
2022/09/15 03:05:23;;;;;;;7.77;4.33;;;13.90;99.90;;;;;;5115284;28;20492;-73
2022/09/15 03:07:51;;;;;;;9.47;4.20;;;13.90;99.90;;;;;;5115929;28;20459;-73
2022/09/15 03:10:19;;;;;;;8.10;4.27;;;13.90;99.90;;;;;;5114827;28;20484;-73
2022/09/15 03:12:48;;;;;;;9.23;5.57;;;13.90;99.90;;;;;;5115598;28;20543;-73
2022/09/15 03:15:17;;;;;;;7.07;4.00;;;13.80;99.90;;;;;;5115498;28;20462;-73
2022/09/15 03:17:46;;;;;;;10.50;3.90;;;13.80;99.90;;;;;;5115403;28;20456;-73
2022/09/15 03:20:16;;;;;;;6.90;4.37;;;13.80;99.90;;;;;;5115304;28;20476;-73
2022/09/15 03:22:43;;;;;;;8.10;4.33;;;13.80;99.90;;;;;;5115364;28;20547;-73
2022/09/15 03:25:10;;;;;;;8.93;4.10;;;13.70;99.90;;;;;;5115315;28;20761;-73
2022/09/15 03:27:37;;;;;;;12.30;5.00;;;13.70;99.90;;;;;;5115408;28;20540;-73
2022/09/15 03:30:06;;;;;;;6.40;4.23;;;13.80;99.90;;;;;;5114868;28;20535;-72
2022/09/15 03:32:33;;;;;;;6.30;4.30;;;13.80;99.90;;;;;;5115138;28;20456;-73
2022/09/15 03:34:59;;;;;;;10.43;4.60;;;13.80;99.90;;;;;;5115180;28;20788;-73
2022/09/15 03:37:28;;;;;;;6.57;5.17;;;13.80;99.90;;;;;;5118270;28;20817;-72
2022/09/15 03:39:55;;;;;;;9.27;5.13;;;13.70;99.90;;;;;;5115527;28;20480;-73
2022/09/15 03:42:22;;;;;;;6.47;5.60;;;13.80;99.90;;;;;;5115326;28;20572;-72
2022/09/15 03:44:48;;;;;;;8.63;5.17;;;13.70;99.90;;;;;;5115785;28;20745;-73
2022/09/15 03:47:15;;;;;;;5.03;4.53;;;13.70;99.90;;;;;;5115183;28;20451;-73
2022/09/15 03:49:42;;;;;;;12.77;4.80;;;13.70;99.90;;;;;;5115718;28;20480;-73
2022/09/15 03:52:09;;;;;;;10.17;5.60;;;13.70;99.90;;;;;;5115357;28;20458;-73
2022/09/15 03:54:37;;;;;;;11.23;5.40;;;13.70;99.90;;;;;;5115397;28;20552;-73
2022/09/15 03:57:04;;;;;;;9.77;4.90;;;13.70;99.90;;;;;;5115605;28;20444;-73
2022/09/15 03:59:31;;;;;;;13.03;7.20;;;13.70;99.90;;;;;;5115800;28;20873;-73
2022/09/15 04:01:58;;;;;;;8.20;5.60;;;13.70;99.90;;;;;;5115189;28;20459;-74
2022/09/15 04:04:25;;;;;;;10.33;6.30;;;13.70;99.90;;;;;;5115090;28;20542;-73
2022/09/15 04:06:52;;;;;;;8.40;6.10;;;13.70;99.90;;;;;;5115177;28;20551;-73
2022/09/15 04:09:20;;;;;;;14.20;6.67;;;13.70;99.90;;;;;;5118822;28;20460;-73
2022/09/15 04:11:48;;;;;;;15.30;6.30;;;13.70;99.90;;;;;;5118993;28;20487;-73
2022/09/15 04:14:15;;;;;;;8.77;6.17;;;13.70;99.90;;;;;;5118753;28;20488;-73
2022/09/15 04:16:42;;;;;;;8.57;6.40;;;13.70;99.90;;;;;;5101284;28;20514;-73
2022/09/15 04:19:09;;;;;;;12.13;6.57;;;13.60;99.90;;;;;;5097590;28;20457;-73
2022/09/15 04:21:36;;;;;;;12.33;7.63;;;13.60;99.90;;;;;;5098224;28;20453;-73
2022/09/15 04:24:04;;;;;;;12.57;6.60;;;13.60;99.90;;;;;;5098361;28;20489;-73
2022/09/15 04:26:33;;;;;;;8.27;6.07;;;13.60;99.90;;;;;;5098398;28;20849;-73
2022/09/15 04:29:03;;;;;;;9.90;5.70;;;13.60;99.90;;;;;;5098336;28;20536;-73
2022/09/15 04:31:29;;;;;;;13.00;5.83;;;13.60;99.90;;;;;;5098528;28;20449;-73
2022/09/15 04:33:57;;;;;;;11.00;4.77;;;13.70;99.90;;;;;;5098097;28;20548;-73
2022/09/15 04:36:26;;;;;;;9.43;5.23;;;13.70;99.90;;;;;;5098725;28;20453;-73
2022/09/15 04:38:53;;;;;;;8.53;5.30;;;13.70;99.90;;;;;;5099032;28;20783;-73
2022/09/15 04:41:20;;;;;;;10.43;4.87;;;13.60;99.90;;;;;;5098245;28;20880;-73
2022/09/15 04:43:47;;;;;;;6.00;5.10;;;13.60;99.90;;;;;;5097695;28;20453;-73
2022/09/15 04:46:15;;;;;;;7.80;5.00;;;13.60;99.90;;;;;;5097938;28;20543;-74
2022/09/15 04:48:42;;;;;;;7.00;4.60;;;13.60;99.90;;;;;;5097902;28;20454;-73
2022/09/15 04:51:12;;;;;;;4.50;4.00;;;13.60;99.90;;;;;;5098057;28;20453;-73
2022/09/15 04:53:39;;;;;;;8.63;5.53;;;13.60;99.90;;;;;;5097745;28;20551;-73
2022/09/15 04:56:08;;;;;;;12.13;5.00;;;13.60;99.90;;;;;;5095677;28;20457;-73
2022/09/15 04:58:38;;;;;;;5.90;4.93;;;13.50;99.90;;;;;;5108949;28;20503;-73
2022/09/15 05:01:12;;;;;;;7.83;4.77;;;13.60;99.90;;;;;;5118096;28;20477;-73
2022/09/15 05:03:41;;;;;;;9.27;5.20;;;13.60;99.90;;;;;;5118143;28;20451;-73
2022/09/15 05:06:10;;;;;;;10.90;4.50;;;13.60;99.90;;;;;;5117817;28;20782;-73
2022/09/15 05:08:37;;;;;;;11.87;4.60;;;13.60;99.90;;;;;;5117387;28;20912;-73
2022/09/15 05:11:06;;;;;;;9.50;5.00;;;13.60;99.90;;;;;;5117459;28;20509;-72
2022/09/15 05:13:34;;;;;;;9.80;4.40;;;13.60;99.90;;;;;;5118016;28;20525;-73
2022/09/15 05:16:05;;;;;;;7.00;4.27;;;13.60;99.90;;;;;;5117497;28;20460;-72
2022/09/15 05:18:33;;;;;;;7.87;5.10;;;13.60;99.90;;;;;;5117131;28;20456;-74
2022/09/15 05:21:01;;;;;;;6.67;4.50;;;13.60;99.90;;;;;;5117463;27;21021;-73
2022/09/15 05:23:29;;;;;;;8.00;4.73;;;13.60;99.90;;;;;;5117510;28;20456;-74
2022/09/15 05:25:56;;;;;;;10.50;4.77;;;13.60;99.90;;;;;;5117486;28;20819;-73
2022/09/15 05:28:23;;;;;;;10.10;4.20;;;13.60;99.90;;;;;;5117298;28;20463;-74
2022/09/15 05:30:51;;;;;;;10.50;4.67;;;13.60;99.90;;;;;;5117306;28;20460;-73
2022/09/15 05:33:18;;;;;;;8.43;4.30;;;13.60;99.90;;;;;;5117342;28;20566;-73
2022/09/15 05:35:50;;;;;;;8.80;3.73;;;13.60;99.90;;;;;;5117257;28;20605;-73
2022/09/15 05:38:19;;;;;;;9.10;5.23;;;13.60;99.90;;;;;;5117255;28;20479;-73
2022/09/15 05:40:45;;;;;;;7.50;4.93;;;13.60;99.90;;;;;;5116814;28;21026;-73
2022/09/15 05:43:13;;;;;;;7.33;4.20;;;13.60;99.90;;;;;;5117016;28;20478;-73
2022/09/15 05:45:41;;;;;;;9.13;4.60;;;13.70;99.90;;;;;;5116862;28;20547;-73
2022/09/15 05:48:08;;;;;;;5.27;4.60;;;13.70;99.90;;;;;;5116794;28;20456;-73
2022/09/15 05:50:35;;;;;;;11.43;5.33;;;13.70;99.90;;;;;;5117602;28;20459;-73
2022/09/15 05:53:02;;;;;;;8.67;4.63;;;13.80;99.90;;;;;;5117120;28;20456;-73
2022/09/15 05:55:30;;;;;;;14.63;4.70;;;13.80;99.90;;;;;;5117995;28;20457;-73
2022/09/15 05:57:57;;;;;;;10.53;5.40;;;13.90;99.90;;;;;;5116060;28;20452;-73
2022/09/15 06:00:24;;;;;;;10.33;4.97;;;14.00;99.90;;;;;;5118486;28;20568;-73
2022/09/15 06:02:51;;;;;;;10.07;5.40;;;14.10;99.90;;;;;;5117871;28;20452;-73
2022/09/15 06:05:18;;;;;;;9.97;4.43;;;14.20;99.90;;;;;;5117494;28;20968;-72
2022/09/15 06:07:45;;;;;;;8.67;4.20;;;14.30;99.90;;;;;;5117832;28;20459;-73
2022/09/15 06:10:12;;;;;;;7.97;4.00;;;14.30;99.90;;;;;;5118394;28;20563;-72
2022/09/15 06:12:40;;;;;;;7.57;3.73;;;14.30;99.90;;;;;;5117090;28;20517;-71
2022/09/15 06:15:07;;;;;;;7.07;3.10;;;14.30;99.90;;;;;;5117371;28;21007;-71
2022/09/15 06:17:34;;;;;;;8.87;3.57;;;14.30;99.90;;;;;;5116827;28;20467;-71
2022/09/15 06:20:04;;;;;;;6.70;3.80;;;14.30;99.90;;;;;;5116468;28;20959;-70
2022/09/15 06:22:31;;;;;;;11.30;4.27;;;14.30;99.90;;;;;;5116870;28;20468;-71
2022/09/15 06:24:58;;;;;;;6.57;4.07;;;14.20;99.90;;;;;;5117555;28;20464;-71
2022/09/15 06:27:25;;;;;;;9.70;3.60;;;14.30;99.90;;;;;;5117370;28;20834;-71
2022/09/15 06:29:53;;;;;;;6.40;4.23;;;14.20;99.90;;;;;;5116759;28;20551;-70
2022/09/15 06:32:20;;;;;;;7.10;3.93;;;14.20;99.90;;;;;;5117981;28;20551;-68
2022/09/15 06:34:47;;;;;;;7.63;3.50;;;14.20;99.90;;;;;;5117372;28;20452;-71
2022/09/15 06:37:14;;;;;;;13.03;4.47;;;14.20;99.90;;;;;;5101107;28;20540;-71
2022/09/15 06:39:42;;;;;;;8.07;4.40;;;14.30;99.90;;;;;;5095550;28;20476;-72
2022/09/15 06:42:09;;;;;;;6.60;3.80;;;14.30;99.90;;;;;;5095617;28;20581;-69
2022/09/15 06:44:36;;;;;;;7.13;3.80;;;14.30;99.90;;;;;;5096422;28;20536;-70
2022/09/15 06:47:06;;;;;;;7.07;4.40;;;14.30;99.90;;;;;;5095337;28;20544;-71
2022/09/15 06:49:32;;;;;;;6.17;3.40;;;14.40;99.90;;;;;;5095501;28;20548;-71
2022/09/15 06:52:01;;;;;;;6.90;3.63;;;14.40;99.90;;;;;;5095539;28;20544;-71
2022/09/15 06:54:28;;;;;;;5.40;3.60;;;14.40;99.90;;;;;;5095328;28;20785;-70
2022/09/15 06:56:55;;;;;;;13.23;3.63;;;14.50;99.90;;;;;;5095226;28;20817;-70
2022/09/15 06:59:22;;;;;;;12.00;4.47;;;14.50;99.90;;;;;;5099959;28;20526;-71
2022/09/15 07:01:52;;;;;;;6.17;3.70;;;14.60;99.90;;;;;;5115105;28;20486;-70
2022/09/15 07:04:21;;;;;;;7.23;4.60;;;14.60;99.90;;;;;;5116537;28;20448;-70
2022/09/15 07:06:49;;;;;;;5.30;4.47;;;14.60;99.90;;;;;;5115547;28;20988;-70
2022/09/15 07:09:16;;;;;;;8.20;4.33;;;14.60;99.90;;;;;;5115385;28;20452;-69
2022/09/15 07:11:42;;;;;;;8.60;3.87;;;14.60;99.90;;;;;;5115565;28;20511;-69
2022/09/15 07:14:11;;;;;;;6.37;3.77;;;14.60;99.90;;;;;;5115317;28;20552;-70
2022/09/15 07:16:37;;;;;;;12.57;4.10;;;14.60;99.90;;;;;;5115374;28;20509;-70
2022/09/15 07:19:04;;;;;;;5.73;4.03;;;14.60;99.90;;;;;;5115343;28;20456;-71
2022/09/15 07:21:34;;;;;;;10.13;4.07;;;14.60;99.90;;;;;;5115065;28;20563;-69
2022/09/15 07:24:01;;;;;;;7.07;3.73;;;14.70;99.90;;;;;;5115128;28;20464;-70
2022/09/15 07:26:29;;;;;;;5.33;3.40;;;14.70;99.90;;;;;;5115988;28;20456;-70
2022/09/15 07:28:58;;;;;;;7.10;4.13;;;14.80;99.90;;;;;;5115065;28;20937;-70
2022/09/15 07:31:27;;;;;;;7.40;4.20;;;14.80;99.90;;;;;;5114917;28;20555;-70
2022/09/15 07:33:54;;;;;;;10.03;4.37;;;14.90;99.90;;;;;;5115410;28;20457;-71
2022/09/15 07:36:21;;;;;;;5.17;3.40;;;15.00;99.90;;;;;;5115145;28;20455;-70
2022/09/15 07:38:50;;;;;;;6.40;3.40;;;15.00;99.90;;;;;;5115763;28;20844;-70
2022/09/15 07:41:18;;;;;;;7.20;3.33;;;15.00;99.90;;;;;;5115499;28;20476;-72
2022/09/15 07:43:46;;;;;;;7.17;3.90;;;14.90;99.90;;;;;;5119091;28;20510;-72
2022/09/15 07:46:13;;;;;;;6.07;3.37;;;14.90;99.90;;;;;;5119781;28;20456;-71
2022/09/15 07:48:40;;;;;;;6.93;3.70;;;15.00;99.90;;;;;;5119960;28;20646;-70
2022/09/15 07:51:07;;;;;;;7.43;4.30;;;15.00;99.90;;;;;;5119767;28;20768;-71
2022/09/15 07:53:34;;;;;;;6.80;3.53;;;15.00;99.90;;;;;;5119881;28;20560;-70
2022/09/15 07:56:03;;;;;;;7.87;3.00;;;15.00;99.90;;;;;;5119645;28;20539;-72
2022/09/15 07:58:29;;;;;;;7.73;3.47;;;15.10;99.90;;;;;;5119195;27;20543;-71
2022/09/15 08:01:02;;;;;;;12.83;4.37;;;15.20;99.90;;;;;;5119540;28;20944;-71
2022/09/15 08:03:29;;;;;;;5.17;3.40;;;15.20;99.90;;;;;;5118167;28;20457;-71
2022/09/15 08:05:57;;;;;;;5.00;3.40;;;15.20;99.90;;;;;;5119748;28;20452;-71
2022/09/15 08:08:24;;;;;;;5.37;3.13;;;15.30;99.90;;;;;;5119376;28;20547;-71
2022/09/15 08:10:51;;;;;;;5.43;3.00;;;15.40;99.90;;;;;;5118902;28;20486;-72
2022/09/15 08:13:20;;;;;;;5.87;2.90;;;15.40;99.90;;;;;;5119096;28;20466;-73
2022/09/15 08:15:47;;;;;;;4.40;2.60;;;15.50;99.90;;;;;;5119108;28;20458;-71
2022/09/15 08:18:14;;;;;;;6.70;2.80;;;15.70;99.90;;;;;;5119546;28;20462;-71
2022/09/15 08:20:42;;;;;;;6.33;2.70;;;15.70;99.90;;;;;;5120939;28;20512;-70
2022/09/15 08:23:10;;;;;;;5.13;3.10;;;15.70;99.90;;;;;;5120717;28;20452;-71
2022/09/15 08:25:37;;;;;;;6.00;3.40;;;15.70;99.90;;;;;;5119249;28;20478;-71
2022/09/15 08:28:04;;;;;;;5.27;2.50;;;15.70;99.90;;;;;;5119256;28;20452;-73
2022/09/15 08:30:33;;;;;;;6.97;3.00;;;15.80;99.90;;;;;;5119786;28;20513;-73
2022/09/15 08:33:00;;;;;;;5.77;2.80;;;15.90;99.90;;;;;;5119051;28;20456;-73
2022/09/15 08:35:26;;;;;;;6.30;3.50;;;15.90;99.90;;;;;;5119449;28;20458;-72
2022/09/15 08:37:54;;;;;;;9.60;2.90;;;15.90;99.90;;;;;;5119488;28;20467;-72
2022/09/15 08:40:25;;;;;;;3.73;2.60;;;15.90;99.90;;;;;;5119455;28;20456;-74
2022/09/15 08:42:55;;;;;;;6.13;3.07;;;16.00;99.90;;;;;;5121029;28;20445;-73
2022/09/15 08:45:26;;;;;;;4.87;2.77;;;16.10;99.90;;;;;;5131600;28;20464;-75
2022/09/15 08:47:58;;;;;;;3.70;2.33;;;16.00;99.90;;;;;;5132731;28;20507;-73
2022/09/15 08:50:29;;;;;;;5.33;2.37;;;15.90;99.90;;;;;;5132696;28;20436;-73
2022/09/15 08:53:01;;;;;;;3.30;2.80;;;15.90;99.90;;;;;;5131234;28;20505;-73
2022/09/15 08:55:37;;;;;;;11.23;2.73;;;16.00;99.90;;;;;;5132001;28;20523;-72
2022/09/15 08:58:04;;;;;;;6.60;2.53;;;16.00;99.90;;;;;;5121631;28;20527;-72
2022/09/15 09:00:33;;;;;;;4.03;2.10;;;16.10;99.90;;;;;;5119945;28;20554;-72
2022/09/15 09:03:41;;;;;;;6.13;2.83;;;16.10;99.90;;;;;;5122184;28;20712;-73
2022/09/15 09:06:18;;;;;;;5.43;2.63;;;16.00;99.90;;;;;;5122237;28;20441;-71
2022/09/15 09:09:05;;;;;;;5.70;2.53;;;16.00;99.90;;;;;;5121260;28;20432;-72
2022/09/15 09:11:47;;;;;;;5.93;2.33;;;15.90;99.90;;;;;;5120049;28;20472;-73
2022/09/15 09:14:24;;;;;;;4.07;2.60;;;15.90;99.90;;;;;;5121165;28;20490;-73
2022/09/15 09:17:06;;;;;;;3.10;2.33;;;16.00;99.90;;;;;;5118799;28;20532;-73
2022/09/15 09:20:02;;;;;;;4.03;2.70;;;16.00;99.90;;;;;;5119861;28;20464;-73
2022/09/15 09:22:33;;;;;;;4.70;3.10;;;16.10;99.90;;;;;;5118457;28;20517;-73
2022/09/15 09:25:02;;;;;;;6.17;2.33;;;16.20;99.90;;;;;;5118930;28;20441;-73
2022/09/15 09:27:32;;;;;;;6.00;2.70;;;16.30;99.90;;;;;;5119007;28;20623;-73
2022/09/15 09:30:03;;;;;;;4.13;2.90;;;16.40;99.90;;;;;;5118550;28;20535;-73
2022/09/15 09:32:42;;;;;;;10.07;3.07;;;16.50;99.90;;;;;;5117575;28;20888;-73
2022/09/15 09:35:20;;;;;;;11.43;2.90;;;16.60;99.90;;;;;;5118314;28;20531;-73
2022/09/15 09:37:47;;;;;;;4.50;2.93;;;16.80;99.90;;;;;;5119046;28;20437;-73
2022/09/15 09:40:15;;;;;;;5.30;2.27;;;16.90;99.90;;;;;;5118943;28;20452;-73
2022/09/15 09:42:43;;;;;;;5.07;2.50;;;17.00;99.90;;;;;;5117540;28;20482;-72
2022/09/15 09:45:13;;;;;;;6.07;2.10;;;17.00;99.90;;;;;;5117552;28;20547;-72
2022/09/15 09:47:42;;;;;;;3.40;2.30;;;17.10;99.90;;;;;;5119586;28;20904;-73
2022/09/15 09:50:33;;;;;;;4.00;2.87;;;17.10;99.90;;;;;;5117908;28;20457;-73
2022/09/15 09:53:10;;;;;;;2.07;1.50;;;17.10;99.90;;;;;;5117072;28;20463;-73
2022/09/15 09:55:40;;;;;;;3.30;1.50;;;17.20;99.90;;;;;;5117102;28;20447;-73
2022/09/15 09:58:13;;;;;;;3.20;1.40;;;17.30;99.90;;;;;;5117789;28;20927;-73
2022/09/15 10:00:41;;;;;;;2.60;1.30;;;17.30;99.90;;;;;;5117502;28;20934;-72
2022/09/15 10:03:14;;;;;;;3.00;1.63;;;17.40;99.90;;;;;;5117564;28;20832;-73
2022/09/15 10:05:43;;;;;;;3.23;1.50;;;17.50;99.90;;;;;;5118243;28;20488;-72
2022/09/15 10:08:16;;;;;;;5.70;1.30;;;17.70;99.90;;;;;;5117184;28;20452;-73
2022/09/15 10:10:51;;;;;;;3.77;1.80;;;17.80;99.90;;;;;;5121347;27;20535;-72
2022/09/15 10:13:18;;;;;;;6.13;1.50;;;17.80;99.90;;;;;;5117999;28;20454;-73
2022/09/15 10:15:53;;;;;;;2.93;1.30;;;17.80;99.90;;;;;;5117790;28;21013;-73
2022/09/15 10:18:30;;;;;;;3.10;1.60;;;17.70;99.90;;;;;;5124163;28;20489;-72
2022/09/15 10:21:00;;;;;;;3.73;1.47;;;17.60;99.90;;;;;;5117733;28;20470;-72
2022/09/15 10:23:28;;;;;;;5.40;1.50;;;17.60;99.90;;;;;;5116464;28;20808;-72
2022/09/15 10:25:57;;;;;;;3.70;1.30;;;17.60;99.90;;;;;;5118694;28;20559;-71
2022/09/15 10:28:26;;;;;;;4.97;1.67;;;17.70;99.90;;;;;;5120745;28;20543;-70
2022/09/15 10:31:02;;;;;;;4.43;1.63;;;17.70;99.90;;;;;;5120877;28;20448;-72
2022/09/15 10:33:30;;;;;;;3.60;1.17;;;17.60;99.90;;;;;;5117279;28;20489;-72
2022/09/15 10:36:04;;;;;;;5.23;1.50;;;17.60;99.90;;;;;;5117210;28;20551;-70
2022/09/15 10:38:38;;;;;;;7.83;1.67;;;17.80;99.90;;;;;;5117541;28;20494;-72
2022/09/15 10:41:18;;;;;;;3.17;1.20;;;18.00;99.90;;;;;;5115669;28;20450;-72
2022/09/15 10:44:04;;;;;;;4.33;1.33;;;18.30;99.90;;;;;;5115898;28;20540;-70
2022/09/15 10:46:43;;;;;;;6.10;1.60;;;18.50;99.90;;;;;;5115505;28;20881;-71
2022/09/15 10:49:23;;;;;;;5.67;1.40;;;18.60;99.90;;;;;;5115913;28;20520;-70
2022/09/15 10:52:04;;;;;;;3.50;1.50;;;18.60;99.90;;;;;;5117372;28;20436;-70
2022/09/15 10:54:58;;;;;;;4.50;1.30;;;18.30;99.90;;;;;;5118514;28;20531;-71
2022/09/15 10:57:44;;;;;;;7.73;1.20;;;18.10;99.90;;;;;;5116404;28;20531;-71
2022/09/15 11:00:13;;;;;;;3.20;1.20;;;18.00;99.90;;;;;;5115128;28;20440;-70
2022/09/15 11:03:07;;;;;;;2.70;1.40;;;17.90;99.90;;;;;;5115071;28;20484;-71
2022/09/15 11:05:47;;;;;;;2.90;1.40;;;17.90;99.90;;;;;;5115194;28;20441;-70
2022/09/15 11:08:38;;;;;;;2.03;1.50;;;17.80;99.90;;;;;;5115971;28;20437;-70
2022/09/15 11:11:12;;;;;;;6.00;1.50;;;17.70;99.90;;;;;;5114819;28;20587;-71
2022/09/15 11:13:54;;;;;;;5.90;1.50;;;17.80;99.90;;;;;;5115190;28;20738;-72
2022/09/15 11:16:34;;;;;;;2.30;1.00;;;17.80;99.90;;;;;;5114749;28;20832;-70
2022/09/15 11:19:21;;;;;;;2.23;1.40;;;18.00;99.90;;;;;;5115416;28;20937;-71
2022/09/15 11:21:51;;;;;;;2.30;1.20;;;18.20;99.90;;;;;;5115105;28;20471;-70
2022/09/15 11:24:28;;;;;;;2.97;1.23;;;18.30;99.90;;;;;;5114809;28;20793;-70
2022/09/15 11:26:59;;;;;;;3.10;1.30;;;18.40;99.90;;;;;;5114675;28;20437;-70
2022/09/15 11:29:31;;;;;;;4.67;1.20;;;18.50;99.90;;;;;;5114990;28;20562;-70
2022/09/15 11:32:03;;;;;;;3.93;1.10;;;18.40;99.90;;;;;;5114839;28;20498;-70
2022/09/15 11:34:34;;;;;;;7.23;1.23;;;18.40;99.90;;;;;;5114797;28;20447;-70
2022/09/15 11:37:08;;;;;;;1.40;0.93;;;18.60;99.90;;;;;;5114517;28;20482;-70
2022/09/15 11:39:44;;;;;;;3.00;1.20;;;18.70;99.90;;;;;;5114666;28;20436;-70
2022/09/15 11:42:18;;;;;;;5.23;1.30;;;18.90;99.90;;;;;;5114389;28;20536;-70
2022/09/15 11:44:47;;;;;;;2.73;1.17;;;18.80;99.90;;;;;;5114952;28;20501;-71
2022/09/15 11:47:22;;;;;;;4.53;1.50;;;18.60;99.90;;;;;;5114557;28;20452;-70
2022/09/15 11:49:54;;;;;;;5.30;1.20;;;18.50;99.90;;;;;;5114644;28;20563;-70
2022/09/15 11:52:49;;;;;;;3.80;1.37;;;18.40;99.90;;;;;;5114801;28;20888;-71
2022/09/15 11:55:27;;;;;;;1.70;1.00;;;18.20;99.90;;;;;;5114837;28;20581;-68
2022/09/15 11:58:01;;;;;;;2.90;1.10;;;18.00;99.90;;;;;;5115498;28;20547;-70
2022/09/15 12:00:29;;;;;;;2.50;1.00;;;17.90;99.90;;;;;;5116846;28;20450;-70
2022/09/15 12:03:10;;;;;;;3.00;0.90;;;17.80;99.90;;;;;;5114705;28;20481;-69
2022/09/15 12:05:42;;;;;;;2.30;1.53;;;17.80;99.90;;;;;;5114787;28;20768;-68
2022/09/15 12:08:19;;;;;;;2.30;1.17;;;17.80;99.90;;;;;;5114188;28;20451;-70
2022/09/15 12:10:52;;;;;;;4.27;1.47;;;17.90;99.90;;;;;;5114711;28;20576;-69
2022/09/15 12:13:21;;;;;;;6.80;1.93;;;18.00;99.90;;;;;;5114549;28;20433;-70
2022/09/15 12:15:49;;;;;;;3.20;1.00;;;18.20;99.90;;;;;;5115608;28;20578;-68
2022/09/15 12:18:21;;;;;;;2.47;1.27;;;18.50;99.90;;;;;;5114439;28;20463;-69
2022/09/15 12:20:53;;;;;;;3.50;1.40;;;18.80;99.90;;;;;;5114622;28;20433;-70
2022/09/15 12:23:25;;;;;;;4.90;1.73;;;18.70;99.90;;;;;;5115032;28;20917;-70
2022/09/15 12:26:09;;;;;;;3.30;1.40;;;18.60;99.90;;;;;;5114606;28;20493;-70
2022/09/15 12:28:42;;;;;;;5.30;1.87;;;18.60;99.90;;;;;;5115417;28;20481;-70
2022/09/15 12:31:15;;;;;;;5.60;1.80;;;19.20;99.90;;;;;;5118104;28;20539;-70
2022/09/15 12:33:46;;;;;;;1.70;1.10;;;19.90;99.90;;;;;;5118076;28;20455;-70
2022/09/15 12:36:34;;;;;;;3.33;1.23;;;20.50;99.90;;;;;;5118044;28;20452;-70
2022/09/15 12:39:02;;;;;;;3.70;1.53;;;21.00;99.90;;;;;;5117497;28;20452;-70
2022/09/15 12:41:31;;;;;;;2.60;1.20;;;21.60;99.90;;;;;;5117499;28;20848;-70
2022/09/15 12:44:02;;;;;;;4.93;1.30;;;22.20;99.90;;;;;;5118012;28;20496;-70
2022/09/15 12:46:29;;;;;;;3.20;1.43;;;22.70;99.90;;;;;;5117944;28;20450;-70
2022/09/15 12:49:00;;;;;;;2.37;1.20;;;22.60;99.90;;;;;;5118020;28;20517;-70
2022/09/15 12:51:28;;;;;;;3.00;1.00;;;22.60;99.90;;;;;;5117434;28;20436;-69
2022/09/15 12:53:58;;;;;;;3.30;1.33;;;21.80;99.90;;;;;;5117344;28;20453;-70
2022/09/15 12:56:26;;;;;;;3.00;1.13;;;21.00;99.90;;;;;;5117829;28;20452;-70
2022/09/15 12:58:55;;;;;;;3.07;1.47;;;20.10;99.90;;;;;;5117732;28;20478;-70
2022/09/15 13:01:37;;;;;;;4.50;1.20;;;19.50;99.90;;;;;;5117067;28;20919;-70
2022/09/15 13:04:43;;;;;;;3.50;1.20;;;19.10;99.90;;;;;;5117353;28;20527;-71
2022/09/15 13:07:33;;;;;;;2.60;1.10;;;19.00;99.90;;;;;;5117162;28;20468;-70